Time;durP1;ratioP1;P1;durP2;ratioP2;P2;SDS_P1;SDS_P2;PMS_P1;PMS_P2;Temp;Humidity;BMP_temperature;BMP_pressure;BME280_temperature;BME280_humidity;BME280_pressure;Samples;Min_cycle;Max_cycle;Signal;HPM_P1;HPM_P2
2022/01/23 00:00:19;;;;;;;0.60;0.60;;;;;;;12.29;34.73;99380.41;5090512;28;20059;-73
2022/01/23 00:02:50;;;;;;;0.63;0.63;;;;;;;12.58;34.30;99350.44;5075865;28;20040;-73
2022/01/23 00:05:19;;;;;;;0.60;0.60;;;;;;;12.53;34.40;99392.78;5058097;28;20496;-73
2022/01/23 00:07:46;;;;;;;0.50;0.50;;;;;;;12.32;34.62;99401.38;5091182;28;20046;-73
2022/01/23 00:10:12;;;;;;;0.40;0.40;;;;;;;12.18;34.53;99395.97;5074061;28;20043;-72
2022/01/23 00:12:46;;;;;;;0.50;0.50;;;;;;;12.37;34.42;99374.22;5091366;28;20126;-72
2022/01/23 00:17:56;;;;;;;0.70;0.70;;;;;;;12.25;34.72;99403.09;5091889;28;20051;-73
2022/01/23 00:20:23;;;;;;;0.67;0.67;;;;;;;12.25;34.46;99407.56;5073114;28;20036;-71
2022/01/23 00:22:53;;;;;;;0.50;0.50;;;;;;;12.27;34.56;99411.72;5089527;28;20092;-72
2022/01/23 00:30:50;;;;;;;0.60;0.60;;;;;;;12.46;34.50;99418.44;5109158;28;20074;-73
2022/01/23 00:33:17;;;;;;;0.60;0.60;;;;;;;12.15;34.82;99377.69;5108829;28;20052;-72
2022/01/23 00:35:47;;;;;;;0.60;0.60;;;;;;;12.82;34.33;99423.03;5108200;28;20150;-71
2022/01/23 00:38:14;;;;;;;0.60;0.60;;;;;;;12.57;34.50;99407.38;5112332;28;20599;-72
2022/01/23 00:40:41;;;;;;;1.83;1.43;;;;;;;12.45;34.46;99382.16;5078201;28;20058;-71
2022/01/23 00:43:16;;;;;;;2.13;1.60;;;;;;;12.19;34.66;99405.59;5094743;28;20044;-72
2022/01/23 00:45:47;;;;;;;1.73;0.90;;;;;;;12.41;34.55;99431.47;5110899;28;20097;-72
2022/01/23 00:48:15;;;;;;;0.95;0.80;;;;;;;11.89;34.56;99399.25;5092635;28;20073;-72
2022/01/23 00:50:43;;;;;;;0.73;0.73;;;;;;;12.44;34.65;99417.81;5092122;28;20080;-69
2022/01/23 00:53:10;;;;;;;1.17;1.00;;;;;;;12.47;34.58;99438.75;5109493;28;20070;-72
2022/01/23 00:55:42;;;;;;;1.43;0.87;;;;;;;12.69;34.38;99443.28;5092838;28;20051;-72
2022/01/23 00:58:08;;;;;;;1.20;1.10;;;;;;;12.39;34.86;99446.78;5111953;28;20040;-72
2022/01/23 01:00:34;;;;;;;1.33;1.17;;;;;;;12.21;34.78;99447.03;5092123;28;20090;-72
2022/01/23 01:03:01;;;;;;;0.63;0.63;;;;;;;12.10;34.96;99436.75;5093389;28;20055;-74
2022/01/23 01:05:28;;;;;;;0.83;0.83;;;;;;;11.95;34.66;99411.03;5093973;28;20058;-73
2022/01/23 01:07:55;;;;;;;1.43;1.30;;;;;;;12.53;34.73;99462.84;5076712;28;20032;-73
2022/01/23 01:10:26;;;;;;;3.30;2.10;;;;;;;12.13;34.44;99463.03;5110860;28;20078;-73
2022/01/23 01:13:00;;;;;;;0.80;0.80;;;;;;;12.16;34.71;99454.72;5061396;28;20071;-73
2022/01/23 01:15:52;;;;;;;0.60;0.60;;;;;;;12.37;34.53;99462.94;5079328;28;20495;-74
2022/01/23 01:32:04;;;;;;;0.93;0.93;;;;;;;9.31;40.86;99487.25;5096436;28;20046;-72
2022/01/23 01:34:40;;;;;;;1.10;1.00;;;;;;;9.30;41.17;99485.56;5061864;28;20117;-73
2022/01/23 01:37:08;;;;;;;0.77;0.77;;;;;;;9.39;41.00;99497.09;5093620;28;20052;-73
2022/01/23 01:39:34;;;;;;;0.80;0.80;;;;;;;9.32;41.18;99498.66;5093568;28;20035;-73
2022/01/23 01:42:00;;;;;;;1.93;1.40;;;;;;;9.31;41.18;99499.66;5059895;28;20047;-72
2022/01/23 01:44:28;;;;;;;0.70;0.70;;;;;;;9.15;41.27;99487.09;5077109;28;20457;-74
2022/01/23 01:47:26;;;;;;;0.70;0.70;;;;;;;9.30;41.22;99506.78;5097468;28;20046;-73
2022/01/23 01:50:02;;;;;;;0.77;0.77;;;;;;;9.38;41.05;99514.81;5077982;28;20047;-75
2022/01/23 01:52:29;;;;;;;0.70;0.70;;;;;;;9.32;41.02;99518.06;5061199;28;20590;-74
2022/01/23 01:55:01;;;;;;;0.70;0.70;;;;;;;9.15;41.16;99486.31;5059970;28;20047;-74
2022/01/23 01:57:39;;;;;;;0.70;0.70;;;;;;;9.29;41.12;99513.06;5062198;28;20044;-75
2022/01/23 02:08:27;;;;;;;1.17;0.77;;;;;;;9.27;40.98;99541.53;5079317;28;20070;-74
2022/01/23 02:10:59;;;;;;;0.60;0.60;;;;;;;9.66;40.77;99553.47;5094006;28;20047;-75
2022/01/23 02:13:31;;;;;;;0.70;0.70;;;;;;;9.27;40.89;99530.94;5093752;28;20043;-73
2022/01/23 02:52:30;;;;;;;0.60;0.60;;;;;;;9.00;41.37;99605.19;5077841;28;20039;-73
2022/01/23 02:55:10;;;;;;;0.60;0.60;;;;;;;8.95;41.22;99628.63;5108606;28;20050;-72
2022/01/23 03:00:14;;;;;;;0.63;0.63;;;;;;;9.09;41.28;99622.84;5074813;28;20554;-73
2022/01/23 03:03:13;;;;;;;0.70;0.70;;;;;;;9.01;41.41;99613.97;5092760;28;20116;-74
2022/01/23 03:06:36;;;;;;;0.50;0.50;;;;;;;8.97;41.16;99634.63;5107245;28;20047;-74
2022/01/23 03:30:02;;;;;;;0.70;0.70;;;;;;;9.19;41.30;99686.38;5093729;28;20044;-74
2022/01/23 03:32:36;;;;;;;0.60;0.60;;;;;;;9.20;41.21;99690.69;5092247;28;20051;-73
2022/01/23 03:35:02;;;;;;;0.70;0.70;;;;;;;9.19;41.46;99691.66;5090844;28;20113;-72
2022/01/23 03:37:28;;;;;;;0.60;0.60;;;;;;;9.13;41.12;99687.81;5091148;28;20396;-73
2022/01/23 03:39:54;;;;;;;0.60;0.60;;;;;;;9.23;41.07;99695.69;5108198;28;20058;-73
2022/01/23 03:42:20;;;;;;;0.60;0.60;;;;;;;9.21;41.04;99711.72;5091284;28;20040;-74
2022/01/23 03:45:04;;;;;;;0.60;0.60;;;;;;;9.22;41.25;99712.56;5107908;28;20427;-74
2022/01/23 03:47:38;;;;;;;0.53;0.53;;;;;;;8.94;41.09;99668.50;5093470;28;20040;-73
2022/01/23 03:50:11;;;;;;;0.80;0.80;;;;;;;9.77;40.72;99707.06;5107901;28;20112;-73
2022/01/23 03:52:39;;;;;;;0.60;0.60;;;;;;;9.19;40.96;99703.13;5109156;28;20051;-73
2022/01/23 03:55:07;;;;;;;0.60;0.60;;;;;;;9.18;41.02;99705.91;5091076;28;20125;-74
2022/01/23 03:57:34;;;;;;;1.07;1.03;;;;;;;9.24;40.95;99729.97;5108967;28;20484;-73
2022/01/23 04:00:00;;;;;;;0.60;0.60;;;;;;;9.16;40.94;99700.75;5091347;28;20047;-74
2022/01/23 04:02:26;;;;;;;0.60;0.60;;;;;;;9.26;40.79;99738.63;5091312;28;20137;-73
2022/01/23 04:04:52;;;;;;;0.50;0.50;;;;;;;9.28;40.88;99749.94;5090637;28;20047;-74
2022/01/23 04:07:25;;;;;;;0.70;0.70;;;;;;;9.60;40.95;99750.31;5091108;28;20066;-73
2022/01/23 04:09:52;;;;;;;;;;;;;;;9.99;40.01;99754.34;5075119;28;20069;-73
2022/01/23 04:12:32;;;;;;;0.40;0.40;;;;;;;9.58;40.92;99752.25;5077646;28;19960;-74
2022/01/23 04:15:50;;;;;;;0.53;0.53;;;;;;;9.15;41.12;99760.00;5079133;28;20527;-74
2022/01/23 04:31:47;;;;;;;0.80;0.80;;;;;;;9.34;40.83;99798.84;5096887;28;20048;-74
2022/01/23 04:45:21;;;;;;;0.60;0.60;;;;;;;9.23;40.88;99810.47;5096499;28;20044;-74
2022/01/23 05:04:33;;;;;;;0.60;0.60;;;;;;;9.04;41.00;99850.28;5102691;28;20040;-73
2022/01/23 05:07:11;;;;;;;0.60;0.60;;;;;;;9.01;41.10;99853.19;5096170;28;20097;-73
2022/01/23 05:09:57;;;;;;;0.70;0.70;;;;;;;9.05;40.75;99867.00;5090333;28;20054;-73
2022/01/23 05:12:45;;;;;;;0.60;0.60;;;;;;;8.92;40.93;99827.56;5083469;28;20051;-73
2022/01/23 05:15:12;;;;;;;0.70;0.70;;;;;;;9.22;40.82;99872.41;5088674;28;20054;-70
2022/01/23 05:17:38;;;;;;;0.70;0.70;;;;;;;9.28;40.88;99879.78;5074444;28;20139;-74
2022/01/23 05:20:05;;;;;;;0.60;0.60;;;;;;;9.50;40.56;99863.50;5090725;28;20127;-74
2022/01/23 05:22:49;;;;;;;0.60;0.60;;;;;;;9.21;40.91;99875.22;5073483;28;20414;-73
2022/01/23 05:27:41;;;;;;;0.60;0.60;;;;;;;9.24;40.34;99881.03;5111313;28;20040;-73
2022/01/23 05:30:07;;;;;;;0.80;0.80;;;;;;;9.40;40.63;99894.53;5112292;28;20048;-73
2022/01/23 05:32:37;;;;;;;0.60;0.60;;;;;;;9.26;40.43;99878.25;5112156;28;20044;-73
2022/01/23 05:35:05;;;;;;;0.70;0.70;;;;;;;9.39;40.28;99882.28;5095085;28;20125;-74
2022/01/23 05:37:32;;;;;;;0.60;0.60;;;;;;;9.23;40.55;99899.72;5061074;28;20043;-77
2022/01/23 05:40:00;;;;;;;0.80;0.80;;;;;;;9.37;40.61;99908.09;5077707;28;20054;-77
2022/01/23 05:42:26;;;;;;;0.60;0.60;;;;;;;9.29;40.48;99915.06;5077456;28;20055;-77
2022/01/23 05:44:52;;;;;;;0.70;0.70;;;;;;;9.29;40.71;99910.59;5077980;28;20043;-77
2022/01/23 05:47:18;;;;;;;0.60;0.60;;;;;;;9.35;40.66;99920.63;5077448;28;20109;-77
2022/01/23 05:49:51;;;;;;;0.60;0.60;;;;;;;9.32;40.48;99926.22;5096288;28;20047;-77
2022/01/23 05:52:26;;;;;;;0.60;0.60;;;;;;;9.22;40.55;99925.41;5097252;28;20553;-75
2022/01/23 05:55:05;;;;;;;0.63;0.63;;;;;;;9.24;40.51;99909.38;5095964;28;20043;-77
2022/01/23 05:57:52;;;;;;;0.70;0.70;;;;;;;9.25;40.66;99929.59;5111150;28;20040;-78
2022/01/23 06:00:30;;;;;;;0.60;0.60;;;;;;;9.31;40.42;99942.25;5093559;28;20039;-75
2022/01/23 06:03:01;;;;;;;0.70;0.70;;;;;;;9.20;40.78;99930.00;5094916;28;20115;-75
2022/01/23 06:05:47;;;;;;;0.60;0.60;;;;;;;9.34;40.70;99956.06;5094604;28;20047;-75
2022/01/23 06:08:16;;;;;;;0.57;0.57;;;;;;;9.33;40.55;99953.56;5078715;28;20044;-76
2022/01/23 06:10:57;;;;;;;0.60;0.60;;;;;;;9.29;40.56;99960.97;5096027;28;20044;-81
2022/01/23 06:13:31;;;;;;;0.70;0.70;;;;;;;9.28;40.69;99959.31;5095256;28;20054;-81
2022/01/23 06:15:58;;;;;;;0.60;0.60;;;;;;;9.26;41.01;99958.59;5076949;28;20078;-80
2022/01/23 06:18:24;;;;;;;0.70;0.70;;;;;;;9.43;40.70;99970.28;5093781;28;20048;-79
2022/01/23 06:21:08;;;;;;;0.70;0.70;;;;;;;9.16;40.76;99963.09;5111076;28;20043;-71
2022/01/23 06:24:04;;;;;;;0.70;0.70;;;;;;;9.38;40.81;99988.44;5094613;28;20140;-70
2022/01/23 06:26:54;;;;;;;0.53;0.53;;;;;;;9.37;40.96;99966.41;5098063;28;20043;-71
2022/01/23 06:29:21;;;;;;;0.60;0.60;;;;;;;9.39;40.94;100017.47;5059897;28;20043;-68
2022/01/23 06:31:47;;;;;;;0.70;0.70;;;;;;;9.41;40.69;100009.38;5109893;28;20044;-68
2022/01/23 06:34:15;;;;;;;0.60;0.60;;;;;;;9.36;40.82;100004.50;5092210;28;20036;-69
2022/01/23 06:36:41;;;;;;;0.60;0.60;;;;;;;9.20;40.96;100006.88;5093129;28;20050;-69
2022/01/23 06:39:08;;;;;;;0.70;0.70;;;;;;;9.18;41.15;99966.41;5109617;28;20384;-68
2022/01/23 06:41:36;;;;;;;0.70;0.70;;;;;;;9.22;41.13;100010.22;5092900;28;20043;-68
2022/01/23 06:44:26;;;;;;;0.73;0.73;;;;;;;9.09;41.02;100019.41;5109686;28;20645;-71
2022/01/23 06:46:52;;;;;;;1.13;0.90;;;;;;;8.96;41.03;100002.97;5109991;28;20039;-69
2022/01/23 06:49:18;;;;;;;0.70;0.70;;;;;;;9.19;41.02;100025.56;5075919;28;20041;-70
2022/01/23 06:51:44;;;;;;;0.60;0.60;;;;;;;9.15;40.84;100027.63;5093150;28;20381;-72
2022/01/23 06:54:12;;;;;;;0.70;0.70;;;;;;;9.10;41.09;100026.41;5075839;28;20035;-73
2022/01/23 06:56:39;;;;;;;0.57;0.57;;;;;;;9.16;40.99;100029.34;5092683;28;20507;-72
2022/01/23 06:59:04;;;;;;;0.60;0.60;;;;;;;9.09;40.86;100046.75;5092182;28;20126;-73
2022/01/23 07:01:30;;;;;;;1.70;1.53;;;;;;;9.11;41.08;100041.31;5074966;28;20138;-73
2022/01/23 07:04:15;;;;;;;0.70;0.70;;;;;;;9.04;40.91;100038.38;5109009;28;20039;-72
2022/01/23 07:06:53;;;;;;;0.60;0.60;;;;;;;9.07;41.03;100040.75;5056743;28;20040;-72
2022/01/23 07:09:32;;;;;;;0.83;0.83;;;;;;;9.10;41.19;100055.53;5056763;28;20035;-71
2022/01/23 07:12:16;;;;;;;0.70;0.70;;;;;;;9.08;41.11;100065.44;5074563;28;20036;-73
2022/01/23 07:15:14;;;;;;;0.50;0.50;;;;;;;9.09;40.92;100070.59;5052877;28;20048;-70
2022/01/23 07:18:05;;;;;;;0.80;0.80;;;;;;;9.03;40.95;100072.94;5062468;28;20048;-71
2022/01/23 07:20:35;;;;;;;0.67;0.67;;;;;;;9.31;41.09;100074.78;5104621;28;20056;-70
2022/01/23 07:23:06;;;;;;;0.70;0.70;;;;;;;9.01;40.97;100077.56;5072349;28;20047;-72
2022/01/23 07:25:33;;;;;;;0.70;0.70;;;;;;;9.04;41.02;100087.91;5071557;28;20040;-72
2022/01/23 07:28:00;;;;;;;0.60;0.60;;;;;;;9.05;40.74;100098.34;5054425;28;20127;-70
2022/01/23 07:30:34;;;;;;;0.70;0.70;;;;;;;9.21;41.02;100100.47;5088049;28;20051;-68
2022/01/23 07:33:01;;;;;;;0.70;0.70;;;;;;;9.16;41.11;100100.88;5088224;28;20075;-67
2022/01/23 07:35:27;;;;;;;0.60;0.60;;;;;;;9.02;41.07;100100.44;5087966;28;20040;-68
2022/01/23 07:37:53;;;;;;;0.70;0.70;;;;;;;9.08;40.96;100108.69;5105026;28;20048;-70
2022/01/23 07:40:38;;;;;;;0.60;0.60;;;;;;;9.29;40.83;100101.44;5089918;28;20052;-69
2022/01/23 07:43:12;;;;;;;0.80;0.80;;;;;;;9.38;40.88;100111.22;5071626;28;20105;-72
2022/01/23 07:45:58;;;;;;;0.60;0.60;;;;;;;9.20;40.88;100110.22;5045954;28;20113;-69
2022/01/23 07:48:40;;;;;;;0.70;0.70;;;;;;;9.27;41.01;100119.28;5077854;28;20089;-70
2022/01/23 07:51:25;;;;;;;0.70;0.70;;;;;;;9.16;40.88;100069.09;5078119;28;20124;-70
2022/01/23 07:54:00;;;;;;;0.80;0.80;;;;;;;9.40;40.90;100119.88;5061649;28;20051;-71
2022/01/23 07:56:55;;;;;;;1.57;1.20;;;;;;;9.40;40.83;100122.50;5058189;28;20051;-69
2022/01/23 07:59:39;;;;;;;0.70;0.70;;;;;;;9.61;41.00;100130.34;5078554;28;20523;-67
2022/01/23 08:02:30;;;;;;;0.60;0.60;;;;;;;9.60;40.97;100141.91;5088038;28;20048;-72
2022/01/23 08:05:15;;;;;;;0.60;0.60;;;;;;;9.63;41.01;100137.19;5078289;28;20155;-71
2022/01/23 08:07:49;;;;;;;0.63;0.63;;;;;;;9.66;40.76;100155.47;5085159;28;20090;-70
2022/01/23 08:10:38;;;;;;;0.60;0.60;;;;;;;9.77;41.04;100165.09;5080334;28;20043;-72
2022/01/23 08:13:05;;;;;;;0.70;0.70;;;;;;;9.71;40.89;100165.66;5113197;28;20040;-72
2022/01/23 08:15:32;;;;;;;0.60;0.60;;;;;;;9.86;40.96;100140.34;5111211;28;20055;-74
2022/01/23 08:18:06;;;;;;;0.60;0.60;;;;;;;10.34;40.54;100161.53;5075868;28;20039;-74
2022/01/23 08:20:33;;;;;;;0.70;0.70;;;;;;;10.01;40.71;100165.47;5093385;28;20108;-73
2022/01/23 08:23:01;;;;;;;1.03;0.93;;;;;;;9.85;40.90;100141.34;5091682;28;20074;-73
2022/01/23 08:25:28;;;;;;;1.10;1.00;;;;;;;10.16;40.92;100177.38;5076823;28;20076;-75
2022/01/23 08:27:54;;;;;;;0.87;0.77;;;;;;;9.88;40.88;100168.44;5093376;28;20136;-72
2022/01/23 08:30:21;;;;;;;0.80;0.77;;;;;;;10.23;40.80;100191.75;5106737;28;20097;-68
2022/01/23 08:32:47;;;;;;;1.17;1.03;;;;;;;10.12;40.88;100198.06;5108211;28;20503;-70
2022/01/23 08:35:13;;;;;;;1.00;0.97;;;;;;;10.15;40.73;100203.09;5107843;28;20031;-71
2022/01/23 08:37:38;;;;;;;0.80;0.80;;;;;;;10.27;40.54;100207.25;5091731;28;20043;-73
2022/01/23 08:40:16;;;;;;;0.80;0.70;;;;;;;10.62;40.18;100209.28;5110046;28;20043;-74
2022/01/23 08:42:42;;;;;;;1.10;0.90;;;;;;;10.40;40.12;100214.91;5093505;28;20043;-72
2022/01/23 08:45:08;;;;;;;1.20;0.70;;;;;;;10.51;40.41;100219.22;5090293;28;20035;-73
2022/01/23 08:47:34;;;;;;;0.70;0.70;;;;;;;10.45;40.13;100209.16;5112194;28;20036;-72
2022/01/23 08:50:00;;;;;;;1.30;1.07;;;;;;;10.55;40.06;100221.44;5101132;28;20062;-73
2022/01/23 08:52:25;;;;;;;0.83;0.83;;;;;;;10.57;40.02;100208.88;5111588;28;20086;-72
2022/01/23 08:54:56;;;;;;;0.63;0.63;;;;;;;10.85;39.87;100220.38;5094890;28;20055;-70
2022/01/23 08:57:23;;;;;;;1.02;0.82;;;;;;;10.84;39.99;100205.44;5107348;28;20488;-70
2022/01/23 08:59:50;;;;;;;1.03;1.00;;;;;;;11.02;39.80;100243.53;5091701;28;20159;-73
2022/01/23 09:02:17;;;;;;;1.07;1.00;;;;;;;11.09;39.91;100233.97;5090773;28;20519;-73
2022/01/23 09:04:44;;;;;;;0.73;0.73;;;;;;;11.11;39.80;100243.50;5090241;28;20036;-71
2022/01/23 09:07:10;;;;;;;1.20;0.83;;;;;;;10.91;40.03;100241.06;5090351;28;20040;-72
2022/01/23 09:09:40;;;;;;;1.60;1.03;;;;;;;11.06;39.88;100234.28;5090932;28;20067;-72
2022/01/23 09:12:20;;;;;;;0.98;0.82;;;;;;;11.29;39.92;100259.50;5090722;28;20112;-71
2022/01/23 09:14:46;;;;;;;0.85;0.80;;;;;;;11.04;39.95;100250.38;5092928;28;20062;-70
2022/01/23 09:17:12;;;;;;;0.80;0.80;;;;;;;11.06;39.98;100258.19;5090768;28;20579;-75
2022/01/23 09:19:39;;;;;;;3.83;1.33;;;;;;;11.05;40.05;100270.66;5057126;28;20512;-70
2022/01/23 09:22:04;;;;;;;0.73;0.73;;;;;;;11.01;40.12;100265.78;5090787;28;20097;-71
2022/01/23 09:24:30;;;;;;;0.60;0.60;;;;;;;11.01;40.07;100258.63;5057014;28;20040;-73
2022/01/23 09:27:03;;;;;;;0.73;0.73;;;;;;;11.21;40.15;100276.19;5090223;28;20047;-70
2022/01/23 09:31:56;;;;;;;2.07;1.37;;;;;;;11.08;40.20;100261.56;5092180;28;20148;-73
2022/01/23 09:34:26;;;;;;;2.67;0.80;;;;;;;11.41;40.02;100272.44;5041462;28;20044;-68
2022/01/23 09:36:55;;;;;;;0.90;0.80;;;;;;;11.24;40.11;100249.31;5090909;28;20100;-72
2022/01/23 09:39:21;;;;;;;0.77;0.77;;;;;;;11.07;40.16;100247.41;5057474;28;20044;-73
2022/01/23 09:41:55;;;;;;;1.10;0.77;;;;;;;11.53;39.85;100286.41;5069578;28;20055;-72
2022/01/23 09:44:21;;;;;;;0.73;0.73;;;;;;;11.15;40.21;100283.91;5105817;28;20606;-72
2022/01/23 09:46:48;;;;;;;0.67;0.67;;;;;;;11.17;40.16;100295.25;5095580;28;20059;-72
2022/01/23 09:49:16;;;;;;;0.63;0.63;;;;;;;11.53;39.94;100305.84;5071242;28;20555;-71
2022/01/23 09:51:44;;;;;;;1.97;1.00;;;;;;;11.44;40.12;100303.25;5087627;28;20190;-73
2022/01/23 09:54:11;;;;;;;2.77;1.17;;;;;;;11.38;40.33;100303.81;5070752;28;20757;-73
2022/01/23 09:56:37;;;;;;;1.63;1.13;;;;;;;11.04;40.80;100308.03;5073745;28;20560;-74
2022/01/23 09:59:03;;;;;;;1.37;1.03;;;;;;;10.85;40.75;100292.97;5108717;28;20491;-73
2022/01/23 10:01:29;;;;;;;1.23;1.03;;;;;;;11.26;40.61;100305.00;5102278;28;20078;-73
2022/01/23 10:03:55;;;;;;;1.63;0.97;;;;;;;11.02;40.49;100300.19;5108557;28;20176;-72
2022/01/23 10:06:21;;;;;;;3.30;1.17;;;;;;;11.02;40.74;100302.88;5090400;28;20127;-71
2022/01/23 10:08:50;;;;;;;3.47;1.17;;;;;;;11.32;40.72;100302.59;5107689;28;20042;-71
2022/01/23 10:11:16;;;;;;;1.20;0.77;;;;;;;11.03;41.05;100317.81;5106835;28;20042;-72
2022/01/23 10:13:43;;;;;;;0.97;0.87;;;;;;;10.80;41.08;100278.44;5105911;28;20476;-69
2022/01/23 10:16:09;;;;;;;1.60;1.10;;;;;;;10.83;40.91;100288.75;5088380;28;20530;-73
2022/01/23 10:18:36;;;;;;;1.97;0.87;;;;;;;11.04;40.83;100331.97;5080296;28;20031;-72
2022/01/23 10:21:01;;;;;;;1.70;0.87;;;;;;;10.91;40.71;100324.28;5106471;28;20047;-73
2022/01/23 10:23:27;;;;;;;1.23;0.77;;;;;;;10.95;40.99;100327.47;5107229;28;20078;-73
2022/01/23 10:25:54;;;;;;;2.63;1.00;;;;;;;10.67;41.05;100289.34;5108963;28;20067;-74
2022/01/23 10:28:24;;;;;;;0.80;0.63;;;;;;;11.27;40.91;100343.91;5099104;28;20059;-73
2022/01/23 10:30:54;;;;;;;2.03;1.13;;;;;;;11.35;40.98;100330.72;5105503;28;20819;-74
2022/01/23 10:33:24;;;;;;;1.00;0.90;;;;;;;11.42;40.84;100335.28;5106648;28;20085;-72
2022/01/23 10:36:18;;;;;;;1.83;0.85;;;;;;;11.67;40.13;100339.97;5089150;28;20047;-71
2022/01/23 10:38:47;;;;;;;0.70;0.53;;;;;;;11.06;40.83;100333.47;5105065;28;20043;-70
2022/01/23 10:49:49;;;;;;;1.00;0.90;;;;;;;11.56;40.52;100357.94;5087610;28;20055;-77
2022/01/23 10:52:36;;;;;;;2.43;1.20;;;;;;;11.62;40.37;100357.34;5086480;28;20061;-77
2022/01/23 10:55:06;;;;;;;1.23;0.97;;;;;;;11.42;40.88;100358.41;5087222;28;20048;-77
2022/01/23 10:57:40;;;;;;;2.07;0.93;;;;;;;11.46;40.93;100351.81;5086443;28;20071;-72
2022/01/23 11:00:09;;;;;;;1.27;1.10;;;;;;;11.41;41.02;100365.56;5076033;28;20058;-66
2022/01/23 11:02:42;;;;;;;1.70;1.10;;;;;;;11.47;40.96;100378.25;5100309;28;20047;-72
2022/01/23 11:05:12;;;;;;;3.27;0.97;;;;;;;11.47;40.69;100377.44;5086580;28;20043;-66
2022/01/23 11:07:42;;;;;;;0.67;0.67;;;;;;;11.50;40.79;100379.81;5105783;28;20051;-65
2022/01/23 11:10:20;;;;;;;2.53;1.10;;;;;;;11.33;40.59;100336.19;5087813;28;20084;-68
2022/01/23 11:18:07;;;;;;;1.73;0.93;;;;;;;11.40;40.88;100382.50;5103140;28;20036;-66
2022/01/23 11:20:43;;;;;;;5.50;1.23;;;;;;;11.54;40.70;100389.16;5105514;28;20042;-69
2022/01/23 11:23:30;;;;;;;3.47;0.90;;;;;;;11.66;40.21;100383.56;5102956;28;20039;-66
2022/01/23 11:25:56;;;;;;;2.53;0.97;;;;;;;11.15;40.80;100395.56;5104615;28;20461;-67
2022/01/23 11:28:29;;;;;;;3.37;1.13;;;;;;;11.40;40.40;100363.88;5106031;28;20036;-67
2022/01/23 11:30:55;;;;;;;0.60;0.60;;;;;;;11.19;40.92;100396.97;5104218;28;20036;-68
2022/01/23 11:33:21;;;;;;;4.10;1.03;;;;;;;10.96;41.03;100379.66;5101083;28;20040;-67
2022/01/23 11:35:47;;;;;;;4.13;1.17;;;;;;;11.17;41.06;100404.25;5085721;28;21004;-69
2022/01/23 11:38:17;;;;;;;2.27;1.03;;;;;;;11.30;40.82;100426.06;5035344;28;20040;-68
2022/01/23 11:54:41;;;;;;;4.83;1.33;;;;;;;11.44;40.80;100428.28;5086234;28;20036;-70
2022/01/23 11:57:43;;;;;;;0.80;0.80;;;;;;;11.53;40.54;100436.19;5084576;28;20044;-72
2022/01/23 12:00:29;;;;;;;6.13;1.87;;;;;;;11.46;40.59;100448.41;5069712;28;20047;-72
2022/01/23 12:03:18;;;;;;;1.63;0.93;;;;;;;11.45;40.62;100441.44;5085529;28;20166;-70
2022/01/23 12:05:49;;;;;;;1.03;0.93;;;;;;;11.16;41.14;100437.16;5079837;28;20043;-70
2022/01/23 12:08:34;;;;;;;0.70;0.70;;;;;;;11.36;40.87;100441.44;5051652;28;20032;-68
2022/01/23 12:11:47;;;;;;;1.90;1.00;;;;;;;11.37;40.96;100451.09;5088380;28;20370;-68
2022/01/23 12:17:05;;;;;;;2.17;1.13;;;;;;;11.49;40.58;100457.91;5084612;28;20067;-71
2022/01/23 12:19:43;;;;;;;2.57;1.20;;;;;;;11.15;40.93;100451.41;5094662;28;20071;-74
2022/01/23 12:22:36;;;;;;;1.53;1.10;;;;;;;11.44;40.45;100454.88;5095630;28;20040;-72
2022/01/23 12:25:14;;;;;;;1.30;1.20;;;;;;;11.23;40.92;100456.84;5088186;28;20040;-72
2022/01/23 12:28:17;;;;;;;1.37;1.27;;;;;;;11.19;40.96;100450.16;5089322;28;20063;-70
2022/01/23 12:30:45;;;;;;;1.30;0.93;;;;;;;11.05;41.35;100470.03;5058631;28;20122;-74
2022/01/23 12:33:12;;;;;;;1.63;1.13;;;;;;;10.55;41.20;100443.75;5096308;28;20068;-74
2022/01/23 12:35:41;;;;;;;5.17;1.40;;;;;;;11.08;41.29;100468.91;5082173;28;20548;-70
2022/01/23 12:38:10;;;;;;;1.27;1.07;;;;;;;11.08;41.11;100476.88;5057967;28;20047;-69
2022/01/23 12:40:43;;;;;;;2.60;0.97;;;;;;;11.11;41.14;100472.13;5084854;28;20035;-71
2022/01/23 12:43:21;;;;;;;3.30;1.73;;;;;;;11.25;40.80;100486.81;5091756;28;20518;-70
2022/01/23 12:46:05;;;;;;;2.00;1.23;;;;;;;11.13;40.68;100456.84;5084490;28;20047;-70
2022/01/23 12:48:36;;;;;;;1.50;1.20;;;;;;;11.17;41.08;100500.81;5075950;28;20114;-69
2022/01/23 12:51:05;;;;;;;0.80;0.80;;;;;;;11.05;41.22;100499.28;5102836;28;20499;-68
2022/01/23 12:53:43;;;;;;;0.93;0.87;;;;;;;11.25;40.95;100508.09;5090763;28;20080;-68
2022/01/23 12:56:12;;;;;;;1.10;1.00;;;;;;;10.90;41.42;100510.47;5089096;28;20043;-69
2022/01/23 12:58:39;;;;;;;0.83;0.80;;;;;;;10.85;41.50;100504.72;5077397;28;20062;-71
2022/01/23 13:01:08;;;;;;;0.70;0.70;;;;;;;10.95;41.31;100494.91;5110299;28;20217;-71
2022/01/23 13:03:36;;;;;;;1.10;1.00;;;;;;;10.73;41.41;100500.50;5092280;28;20036;-71
2022/01/23 13:06:06;;;;;;;1.33;1.07;;;;;;;10.54;41.59;100458.81;5045447;28;20081;-70
2022/01/23 13:08:45;;;;;;;1.95;1.33;;;;;;;10.44;41.37;100463.25;5090075;28;20081;-70
2022/01/23 13:11:43;;;;;;;1.40;1.30;;;;;;;10.60;41.30;100495.47;5096155;28;20403;-71
2022/01/23 13:14:03;;;;;;;1.63;1.23;;;;;;;10.87;41.04;100478.84;5076583;28;20032;-71
2022/01/23 13:16:58;;;;;;;3.93;1.63;;;;;;;10.29;41.45;100472.59;5073315;28;20518;-69
2022/01/23 13:19:32;;;;;;;2.57;1.37;;;;;;;10.21;41.62;100470.63;5092090;28;20085;-69
2022/01/23 13:30:20;;;;;;;1.00;0.87;;;;;;;10.40;41.96;100535.38;5110232;28;20087;-67
2022/01/23 13:32:49;;;;;;;0.83;0.83;;;;;;;10.29;41.71;100538.97;5074735;28;20527;-67
2022/01/23 13:35:17;;;;;;;1.30;1.20;;;;;;;10.56;41.82;100549.00;5059417;28;20036;-69
2022/01/23 13:37:54;;;;;;;2.23;1.40;;;;;;;10.54;41.88;100541.16;5072377;28;20446;-69
2022/01/23 13:40:29;;;;;;;1.87;1.37;;;;;;;10.65;41.41;100554.34;5107259;28;20040;-69
2022/01/23 14:04:35;;;;;;;1.10;1.00;;;;;;;10.50;41.65;100592.88;5092223;28;20407;-69
2022/01/23 14:07:00;;;;;;;1.93;1.10;;;;;;;10.15;41.69;100606.56;5090010;28;20134;-70
2022/01/23 14:09:27;;;;;;;1.47;1.37;;;;;;;9.92;41.72;100583.75;5074189;28;20118;-70
2022/01/23 14:11:53;;;;;;;1.00;1.00;;;;;;;9.88;41.76;100589.47;5092272;28;20050;-70
2022/01/23 14:14:25;;;;;;;1.20;0.80;;;;;;;10.36;41.61;100614.50;5075299;28;20031;-70
2022/01/23 14:16:53;;;;;;;1.07;1.03;;;;;;;9.94;41.82;100580.97;5107397;28;20055;-70
2022/01/23 14:19:27;;;;;;;0.90;0.90;;;;;;;10.31;41.84;100611.38;5099637;28;20147;-72
2022/01/23 14:21:59;;;;;;;1.40;1.30;;;;;;;10.04;42.21;100609.25;5097554;28;20127;-71
2022/01/23 14:24:31;;;;;;;0.87;0.87;;;;;;;9.94;41.97;100587.13;5073711;28;20040;-68
2022/01/23 14:27:07;;;;;;;0.87;0.83;;;;;;;10.25;41.92;100636.63;5095502;28;20050;-71
2022/01/23 14:29:46;;;;;;;0.80;0.80;;;;;;;9.96;41.86;100617.03;5100607;28;20046;-69
2022/01/23 14:32:22;;;;;;;1.27;1.13;;;;;;;9.71;42.02;100561.72;5101469;28;20341;-68
2022/01/23 14:34:49;;;;;;;1.17;1.07;;;;;;;9.71;42.15;100636.00;5086390;28;20495;-68
2022/01/23 14:37:24;;;;;;;0.80;0.80;;;;;;;10.14;41.67;100641.19;5089156;28;20040;-68
2022/01/23 14:39:50;;;;;;;1.07;1.07;;;;;;;9.36;42.01;100602.75;5091396;28;20139;-68
2022/01/23 14:42:18;;;;;;;1.00;1.00;;;;;;;9.97;41.89;100662.97;5102758;28;20539;-68
2022/01/23 14:44:45;;;;;;;3.40;1.90;;;;;;;9.72;42.13;100661.53;5107916;28;20070;-68
2022/01/23 14:47:11;;;;;;;2.53;1.70;;;;;;;9.73;41.99;100684.44;5096700;28;20529;-68
2022/01/23 14:49:38;;;;;;;1.23;1.13;;;;;;;9.57;41.92;100667.28;5062859;28;20055;-68
2022/01/23 14:52:09;;;;;;;1.00;0.97;;;;;;;9.68;42.13;100680.50;5088311;28;20036;-69
2022/01/23 14:54:36;;;;;;;0.90;0.90;;;;;;;9.41;42.09;100693.38;5081408;28;20047;-69
2022/01/23 14:57:03;;;;;;;1.30;1.20;;;;;;;9.70;41.78;100697.13;5088172;28;20039;-68
2022/01/23 14:59:30;;;;;;;0.93;0.93;;;;;;;9.68;42.02;100712.31;5073237;28;20415;-69
2022/01/23 15:01:57;;;;;;;1.17;1.07;;;;;;;9.39;41.94;100705.91;5071868;28;20040;-69
2022/01/23 15:04:23;;;;;;;1.00;1.00;;;;;;;9.38;42.14;100726.28;5089138;28;20047;-69
2022/01/23 15:06:52;;;;;;;1.63;1.10;;;;;;;9.45;42.52;100684.19;5072024;28;20055;-69
2022/01/23 15:09:20;;;;;;;0.83;0.83;;;;;;;9.69;42.19;100736.06;5067805;28;20526;-69
2022/01/23 15:11:46;;;;;;;1.13;1.10;;;;;;;9.51;42.13;100737.59;5108241;28;20048;-68